Hlavní strana
METAR-TAF:

METAR-TAF

Letiště :

Letiště Moskva-Vnukovo

Moskva-Vnukovo, Rusko

zeměpisná šířka: 55-39N, zeměpisná délka: 037-16E, výška: 203 m

Aktuální stav počasí

Zpráva byla vytvořena před 30 minutami, v 15:30 UTC
Jihovýchodní vítr 6 kt
Teplota 9°C
Vlhkost vzduchu 76%
Tlak 1003 hPa
Viditelnost 10 km a více
Oblačno až skoro zataženo ve výšce 4000 ft

METAR: UUWW 241530Z 13003MPS 9999 BKN040 09/05 Q1003 R24/000070 NOSIG

Čas: 19:00 (16:00 UTC)

Předpověď počasí

Zpráva byla vytvořena před 2 hodinami a 3 minutami, v 13:57 UTC
Předpověď platná od 24 v 15 UTC do 25 v 15 UTC
Jihojihovýchodní vítr 10 kt
Viditelnost 10 km a více
Skoro jasno ve výšce 400 ft
Oblačno až skoro zataženo ve výšce 1600 ft

TAF: UUWW 241357Z 2415/2515 15005MPS 9999 FEW004 BKN016 TX11/2512Z TN06/2502Z

Stav a předpovědi počasí z více než 4 000 letišť (zprávy METAR a TAF).

Červené a žluté tečky na mapě představují dostupné meteorologické stanice.

Když kurzor umístíte na tečku, zobrazí se název stanice.

Pak kliknutím zobrazíte stav a předpověď počasí.

Chcete-li změnit mapu, kliknutím na zelené tlačítko se znaménkem +mapu přiblížíte, kliknutím na zelené tlačítko se znaménkem – mapu oddálíte a kliknutím na zelené šipky přejdete na sousední mapy.


METAR-TAF: